Rocky Mount, North Carolina
Current Conditions -  °F | °C
As of 6:04 AM on Saturday 25 Oct 2014 (Local Time) from KRWI Reporting Station
Haze Haze  
Wind Chill: 42°   Ceiling: Unl
Heat Index: 42°   Visibility: 1.2mi
Dew Point: 41°   Wind: 0mph
Humidity: 96%   Direction: NA
Pressure: 29.98"   Gusts: NA
Location:  35.95°N, 77.79°W
Report Text: KRWI 251004Z AUTO 00000KT 1 1/4SM BR FEW002 06/05 A2998 RMK AO2 VIS 3/4V3 T00560050
Loading
Personal Weather Stations






























Interactive Weather Map New forecast layout! Learn more

10-Day Weather Forecast

Advertisements
Track Severe Weather on mobile